Dr Augusto Roberto Fuster International Airport


Codes: SGPJ/PJC
Name: Dr Augusto Roberto Fuster International Airport
City: Pedro Juan Caballero
Country: Paraguay
Elevation: 1873 ft.
Wikipedia:

Photos at Dr Augusto Roberto Fuster International Airport


   Photos courtesy of SpottingLog. You can add your own sightings and photos by signing up for a free trial today.



No photos found.

Weather at Dr Augusto Roberto Fuster International Airport


Time (UTC)DescriptionTempratureWindCloud coverageVisibilityPressureHumidity
16-Jun-2024 00:00Broken Clouds23°C4 mph, NE80%10000m1014hPa54%
16-Jun-2024 03:00Broken Clouds23°C4 mph, NE84%10000m1014hPa55%
16-Jun-2024 06:00Overcast Clouds23°C4 mph, NE89%10000m1014hPa56%
16-Jun-2024 09:00Broken Clouds21°C7 mph, NE53%10000m1013hPa56%
16-Jun-2024 12:00Broken Clouds24°C7 mph, NE67%10000m1014hPa44%
16-Jun-2024 15:00Broken Clouds32°C13 mph, N65%10000m1013hPa27%
16-Jun-2024 18:00Scattered Clouds33°C11 mph, NW39%10000m1011hPa26%
16-Jun-2024 21:00Clear Sky27°C4 mph, N3%10000m1011hPa38%
17-Jun-2024 00:00Clear Sky24°C4 mph, NE2%10000m1012hPa42%
17-Jun-2024 03:00Clear Sky23°C4 mph, NE1%10000m1011hPa42%
17-Jun-2024 06:00Few Clouds20°C2 mph, SW11%10000m1011hPa52%
17-Jun-2024 09:00Broken Clouds20°C0 mph, NE75%10000m1011hPa57%
17-Jun-2024 12:00Overcast Clouds22°C2 mph, N88%10000m1012hPa46%
17-Jun-2024 15:00Overcast Clouds29°C9 mph, N91%10000m1011hPa27%
17-Jun-2024 18:00Broken Clouds31°C13 mph, N64%10000m1008hPa23%
17-Jun-2024 21:00Broken Clouds27°C9 mph, N57%10000m1007hPa30%
18-Jun-2024 00:00Scattered Clouds21°C4 mph, N30%10000m1009hPa42%
18-Jun-2024 03:00Broken Clouds22°C4 mph, N67%10000m1009hPa39%
18-Jun-2024 06:00Broken Clouds23°C2 mph, NE70%10000m1008hPa38%
18-Jun-2024 09:00Broken Clouds20°C4 mph, NE55%10000m1008hPa45%
18-Jun-2024 12:00Broken Clouds24°C7 mph, N67%10000m1009hPa36%
18-Jun-2024 15:00Broken Clouds31°C13 mph, N56%10000m1008hPa21%
18-Jun-2024 18:00Broken Clouds29°C9 mph, N78%10000m1006hPa25%
18-Jun-2024 21:00Overcast Clouds27°C4 mph, NE100%10000m1006hPa29%
19-Jun-2024 00:00Overcast Clouds27°C9 mph, NE94%10000m1007hPa29%
19-Jun-2024 03:00Broken Clouds26°C9 mph, NE60%10000m1007hPa30%
19-Jun-2024 06:00Broken Clouds25°C9 mph, NE68%10000m1007hPa30%
19-Jun-2024 09:00Overcast Clouds26°C11 mph, N97%10000m1007hPa27%
19-Jun-2024 12:00Overcast Clouds27°C13 mph, N98%10000m1009hPa22%
19-Jun-2024 15:00Broken Clouds33°C18 mph, N75%10000m1009hPa19%
19-Jun-2024 18:00Broken Clouds30°C9 mph, NW77%10000m1007hPa25%
19-Jun-2024 21:00Overcast Clouds28°C7 mph, N90%10000m1007hPa30%
20-Jun-2024 00:00Light Rain24°C4 mph, NE79%10000m1009hPa44%
20-Jun-2024 03:00Overcast Clouds22°C2 mph, SW100%10000m1012hPa55%
20-Jun-2024 06:00Light Rain21°C9 mph, NW100%10000m1012hPa75%
20-Jun-2024 09:00Light Rain20°C2 mph, N100%10000m1010hPa87%
20-Jun-2024 12:00Light Rain23°C2 mph, NE99%10000m1012hPa70%
20-Jun-2024 15:00Overcast Clouds27°C7 mph, NW86%10000m1013hPa48%
20-Jun-2024 18:00Light Rain28°C4 mph, NW90%10000m1011hPa49%
20-Jun-2024 21:00Light Rain25°C2 mph, N69%10000m1010hPa55%